Time;durP1;ratioP1;P1;durP2;ratioP2;P2;SDS_P1;SDS_P2;PMS_P1;PMS_P2;Temp;Humidity;BMP_temperature;BMP_pressure;BME280_temperature;BME280_humidity;BME280_pressure;Samples;Min_cycle;Max_cycle;Signal;HPM_P1;HPM_P2
2023/04/27 00:01:27;;;;;;;7.00;3.37;;;;;;;;;;4999767;28;20022;-79
2023/04/27 00:03:52;;;;;;;10.87;3.17;;;;;;;;;;5001068;28;20352;-79
2023/04/27 00:06:17;;;;;;;10.20;3.22;;;;;;;;;;4999223;28;20292;-79
2023/04/27 00:08:43;;;;;;;6.88;2.97;;;;;;;;;;4999048;28;20509;-79
2023/04/27 00:11:08;;;;;;;7.50;3.20;;;;;;;;;;5000302;28;20397;-79
2023/04/27 00:13:33;;;;;;;7.65;3.03;;;;;;;;;;5000021;28;20715;-79
2023/04/27 00:16:02;;;;;;;6.78;3.28;;;;;;;;;;4999502;28;20096;-79
2023/04/27 00:18:27;;;;;;;10.00;3.42;;;;;;;;;;5015020;28;20061;-79
2023/04/27 00:20:52;;;;;;;7.47;2.70;;;;;;;;;;4999376;28;20027;-79
2023/04/27 00:23:17;;;;;;;7.53;3.03;;;;;;;;;;5000275;28;20295;-79
2023/04/27 00:25:43;;;;;;;7.67;2.87;;;;;;;;;;5000010;28;20084;-79
2023/04/27 00:28:08;;;;;;;5.60;3.22;;;;;;;;;;5000353;28;20526;-79
2023/04/27 00:30:34;;;;;;;7.03;2.90;;;;;;;;;;4997871;28;20049;-79
2023/04/27 00:33:00;;;;;;;7.18;3.17;;;;;;;;;;4997785;28;20398;-78
2023/04/27 00:35:25;;;;;;;8.43;3.33;;;;;;;;;;4998374;28;20054;-79
2023/04/27 00:37:53;;;;;;;5.53;2.80;;;;;;;;;;4998124;28;20028;-78
2023/04/27 00:40:20;;;;;;;9.73;3.58;;;;;;;;;;5000317;28;20026;-79
2023/04/27 00:42:45;;;;;;;6.53;3.13;;;;;;;;;;4995501;28;20014;-80
2023/04/27 00:45:10;;;;;;;9.25;3.05;;;;;;;;;;4998631;28;20058;-78
2023/04/27 00:47:35;;;;;;;7.13;2.95;;;;;;;;;;5000525;28;20082;-79
2023/04/27 00:50:01;;;;;;;9.37;3.07;;;;;;;;;;5000646;28;20026;-79
2023/04/27 00:52:26;;;;;;;7.00;2.80;;;;;;;;;;5003832;28;20288;-79
2023/04/27 00:54:51;;;;;;;6.25;3.10;;;;;;;;;;4999154;28;20049;-79
2023/04/27 00:57:17;;;;;;;7.68;3.00;;;;;;;;;;4995553;28;20416;-78
2023/04/27 00:59:42;;;;;;;6.25;3.17;;;;;;;;;;4995044;28;20458;-79
2023/04/27 01:02:10;;;;;;;5.97;3.13;;;;;;;;;;4995976;28;20018;-78
2023/04/27 01:04:36;;;;;;;7.25;3.40;;;;;;;;;;4996983;28;20026;-78
2023/04/27 01:07:01;;;;;;;6.47;3.15;;;;;;;;;;5001478;28;20027;-79
2023/04/27 01:09:27;;;;;;;7.68;3.25;;;;;;;;;;5015621;28;20110;-79
2023/04/27 01:11:52;;;;;;;8.15;3.17;;;;;;;;;;5002256;28;20050;-79
2023/04/27 01:14:17;;;;;;;6.15;3.35;;;;;;;;;;5002413;28;20029;-79
2023/04/27 01:16:43;;;;;;;9.00;3.50;;;;;;;;;;5017566;28;20041;-79
2023/04/27 01:19:08;;;;;;;6.90;3.10;;;;;;;;;;5004181;28;20263;-79
2023/04/27 01:21:33;;;;;;;10.32;3.13;;;;;;;;;;4999842;28;20018;-79
2023/04/27 01:23:59;;;;;;;6.18;2.85;;;;;;;;;;4999550;28;20060;-79
2023/04/27 01:26:25;;;;;;;6.82;2.95;;;;;;;;;;4999434;28;20050;-79
2023/04/27 01:28:50;;;;;;;7.10;3.20;;;;;;;;;;4999115;28;20037;-79
2023/04/27 01:31:16;;;;;;;9.52;3.13;;;;;;;;;;5001394;28;20018;-79
2023/04/27 01:33:41;;;;;;;6.50;3.40;;;;;;;;;;5003441;28;20026;-78
2023/04/27 01:36:07;;;;;;;8.75;2.95;;;;;;;;;;5002724;28;20022;-79
2023/04/27 01:38:33;;;;;;;9.43;3.05;;;;;;;;;;5002747;28;20409;-79
2023/04/27 01:41:00;;;;;;;9.70;3.25;;;;;;;;;;5001588;28;20030;-79
2023/04/27 01:43:26;;;;;;;4.53;3.00;;;;;;;;;;5018340;28;20481;-79
2023/04/27 01:45:52;;;;;;;4.95;3.13;;;;;;;;;;5002639;28;20077;-79
2023/04/27 01:48:17;;;;;;;8.35;3.40;;;;;;;;;;5000258;28;20034;-79
2023/04/27 01:50:42;;;;;;;6.77;3.37;;;;;;;;;;5001756;28;20113;-79
2023/04/27 01:53:07;;;;;;;7.27;3.30;;;;;;;;;;5016439;28;20304;-80
2023/04/27 01:55:32;;;;;;;6.75;3.20;;;;;;;;;;5000194;28;20267;-78
2023/04/27 01:57:58;;;;;;;5.65;3.00;;;;;;;;;;4999737;28;20049;-80
2023/04/27 02:00:23;;;;;;;11.87;3.20;;;;;;;;;;5000435;28;20121;-80
2023/04/27 02:02:56;;;;;;;8.70;2.88;;;;;;;;;;5000548;28;20303;-78
2023/04/27 02:05:22;;;;;;;6.88;3.33;;;;;;;;;;5001405;28;20477;-80
2023/04/27 02:07:48;;;;;;;9.88;3.03;;;;;;;;;;5001303;28;20022;-78
2023/04/27 02:10:13;;;;;;;11.43;3.42;;;;;;;;;;4999977;28;20030;-79
2023/04/27 02:12:39;;;;;;;7.72;3.25;;;;;;;;;;5002085;28;20069;-78
2023/04/27 02:15:05;;;;;;;5.93;3.08;;;;;;;;;;5001145;28;20445;-79
2023/04/27 02:17:32;;;;;;;4.50;2.53;;;;;;;;;;4999688;28;20023;-78
2023/04/27 02:19:58;;;;;;;4.47;3.00;;;;;;;;;;4998651;28;20054;-78
2023/04/27 02:22:23;;;;;;;5.22;2.65;;;;;;;;;;4998670;28;20026;-78
2023/04/27 02:24:48;;;;;;;9.00;3.00;;;;;;;;;;4999969;28;20212;-79
2023/04/27 02:27:13;;;;;;;7.72;2.90;;;;;;;;;;5000008;28;20444;-80
2023/04/27 02:29:39;;;;;;;5.88;2.88;;;;;;;;;;5000535;28;20131;-78
2023/04/27 02:32:05;;;;;;;5.05;2.80;;;;;;;;;;5000327;28;20024;-80
2023/04/27 02:34:30;;;;;;;5.18;2.60;;;;;;;;;;5001094;28;20022;-79
2023/04/27 02:36:55;;;;;;;8.13;2.88;;;;;;;;;;5001160;28;20030;-80
2023/04/27 02:39:21;;;;;;;4.25;2.92;;;;;;;;;;5001000;28;20117;-80
2023/04/27 02:41:46;;;;;;;8.57;3.17;;;;;;;;;;4999751;28;20505;-80
2023/04/27 02:44:11;;;;;;;5.70;2.60;;;;;;;;;;5001734;28;20485;-80
2023/04/27 02:46:36;;;;;;;6.25;2.90;;;;;;;;;;5001805;28;20034;-80
2023/04/27 02:49:02;;;;;;;5.83;2.77;;;;;;;;;;5001805;28;20041;-80
2023/04/27 02:51:27;;;;;;;8.57;2.80;;;;;;;;;;5002009;28;20264;-80
2023/04/27 02:53:53;;;;;;;6.45;2.63;;;;;;;;;;4999887;28;20260;-80
2023/04/27 02:56:18;;;;;;;7.00;2.70;;;;;;;;;;5001378;28;20050;-80
2023/04/27 02:58:43;;;;;;;6.70;2.75;;;;;;;;;;5001762;28;20049;-80
2023/04/27 03:01:09;;;;;;;4.32;2.70;;;;;;;;;;5001161;28;20034;-80
2023/04/27 03:03:34;;;;;;;8.98;3.00;;;;;;;;;;5002453;28;20465;-80
2023/04/27 03:05:59;;;;;;;5.28;2.70;;;;;;;;;;5001563;28;20022;-80
2023/04/27 03:08:25;;;;;;;6.63;2.60;;;;;;;;;;5000813;28;20030;-80
2023/04/27 03:10:50;;;;;;;6.10;2.73;;;;;;;;;;5002175;28;20260;-79
2023/04/27 03:13:15;;;;;;;7.63;2.80;;;;;;;;;;5001102;28;20360;-78
2023/04/27 03:15:40;;;;;;;8.40;2.85;;;;;;;;;;5001071;28;20030;-79
2023/04/27 03:18:06;;;;;;;7.90;2.80;;;;;;;;;;5001111;28;20093;-78
2023/04/27 03:20:31;;;;;;;11.05;3.00;;;;;;;;;;4999036;28;20276;-78
2023/04/27 03:22:56;;;;;;;7.93;2.37;;;;;;;;;;5000246;28;20018;-79
2023/04/27 03:25:21;;;;;;;6.27;2.93;;;;;;;;;;4997881;28;20309;-79
2023/04/27 03:27:46;;;;;;;9.90;3.10;;;;;;;;;;5015887;28;20256;-79
2023/04/27 03:30:12;;;;;;;7.55;3.00;;;;;;;;;;5000075;28;20034;-78
2023/04/27 03:32:37;;;;;;;7.03;2.47;;;;;;;;;;5002070;28;20022;-79
2023/04/27 03:35:03;;;;;;;5.43;2.55;;;;;;;;;;5002492;28;20026;-79
2023/04/27 03:37:28;;;;;;;8.07;3.13;;;;;;;;;;5002207;28;20117;-78
2023/04/27 03:39:54;;;;;;;6.53;2.60;;;;;;;;;;5003119;28;20064;-79
2023/04/27 03:42:19;;;;;;;13.00;3.10;;;;;;;;;;5003101;28;20033;-79
2023/04/27 03:44:44;;;;;;;7.17;2.93;;;;;;;;;;5003323;28;20255;-79
2023/04/27 03:47:09;;;;;;;8.75;2.85;;;;;;;;;;5001877;28;20252;-79
2023/04/27 03:49:35;;;;;;;6.90;2.90;;;;;;;;;;5002493;28;20057;-79
2023/04/27 03:52:00;;;;;;;6.15;2.90;;;;;;;;;;5001457;28;20252;-79
2023/04/27 03:54:25;;;;;;;6.38;2.90;;;;;;;;;;5001424;28;20081;-78
2023/04/27 03:56:51;;;;;;;5.13;2.77;;;;;;;;;;4997880;28;20076;-79
2023/04/27 03:59:16;;;;;;;6.22;3.00;;;;;;;;;;4999026;28;20256;-79
2023/04/27 04:01:41;;;;;;;7.03;2.78;;;;;;;;;;4998564;28;20106;-81
2023/04/27 04:04:07;;;;;;;8.50;2.53;;;;;;;;;;4997153;28;20405;-78
2023/04/27 04:06:32;;;;;;;8.43;3.42;;;;;;;;;;5014060;28;20363;-79
2023/04/27 04:08:57;;;;;;;7.80;3.13;;;;;;;;;;5005033;28;20061;-79
2023/04/27 04:11:22;;;;;;;8.30;3.00;;;;;;;;;;5001000;28;20026;-78
2023/04/27 04:13:48;;;;;;;6.85;3.20;;;;;;;;;;5001486;28;20026;-79
2023/04/27 04:16:13;;;;;;;4.80;2.70;;;;;;;;;;4998772;28;20501;-80
2023/04/27 04:18:38;;;;;;;6.88;2.80;;;;;;;;;;4995789;28;20030;-77
2023/04/27 04:21:04;;;;;;;6.18;2.90;;;;;;;;;;4993259;28;20036;-75
2023/04/27 04:23:29;;;;;;;7.20;2.72;;;;;;;;;;4994028;28;20113;-75
2023/04/27 04:25:57;;;;;;;5.95;2.65;;;;;;;;;;4993975;28;20027;-76
2023/04/27 04:28:23;;;;;;;7.43;2.90;;;;;;;;;;4995635;28;20032;-79
2023/04/27 04:30:49;;;;;;;4.25;2.58;;;;;;;;;;4995982;28;20101;-80
2023/04/27 04:33:16;;;;;;;12.55;2.92;;;;;;;;;;4996908;28;20381;-79
2023/04/27 04:35:41;;;;;;;5.95;3.22;;;;;;;;;;4996896;28;20026;-80
2023/04/27 04:38:07;;;;;;;11.07;3.33;;;;;;;;;;4997012;28;20482;-78
2023/04/27 04:40:33;;;;;;;10.07;3.25;;;;;;;;;;4999547;28;20482;-79
2023/04/27 04:42:58;;;;;;;8.63;3.63;;;;;;;;;;4994590;28;20019;-77
2023/04/27 04:45:23;;;;;;;5.40;2.90;;;;;;;;;;4996060;28;20033;-77
2023/04/27 04:47:48;;;;;;;9.30;3.35;;;;;;;;;;4994153;28;20347;-77
2023/04/27 04:50:14;;;;;;;9.50;3.53;;;;;;;;;;4994315;28;20022;-79
2023/04/27 04:52:39;;;;;;;5.15;3.05;;;;;;;;;;4995805;28;20085;-78
2023/04/27 04:55:05;;;;;;;10.07;3.75;;;;;;;;;;4993052;28;20462;-77
2023/04/27 04:57:30;;;;;;;6.75;3.67;;;;;;;;;;4993997;28;20573;-78
2023/04/27 04:59:56;;;;;;;13.30;3.50;;;;;;;;;;4993894;28;20032;-78
2023/04/27 05:02:21;;;;;;;7.72;3.10;;;;;;;;;;4994401;28;20031;-77
2023/04/27 05:04:46;;;;;;;7.85;3.35;;;;;;;;;;4993934;28;20034;-77
2023/04/27 05:07:12;;;;;;;6.10;3.10;;;;;;;;;;5012796;28;20037;-78
2023/04/27 05:09:38;;;;;;;9.45;3.08;;;;;;;;;;4997936;28;20033;-77
2023/04/27 05:12:03;;;;;;;7.55;2.97;;;;;;;;;;4997911;28;20026;-77
2023/04/27 05:14:28;;;;;;;6.40;2.97;;;;;;;;;;4998098;28;20073;-77
2023/04/27 05:16:54;;;;;;;8.17;3.07;;;;;;;;;;4997636;28;20489;-77
2023/04/27 05:19:19;;;;;;;6.20;2.58;;;;;;;;;;4998031;28;20774;-77
2023/04/27 05:21:45;;;;;;;4.65;2.58;;;;;;;;;;4997895;28;20033;-77
2023/04/27 05:24:11;;;;;;;8.38;2.97;;;;;;;;;;4997359;28;20033;-77
2023/04/27 05:26:37;;;;;;;7.75;3.00;;;;;;;;;;4997867;28;20035;-78
2023/04/27 05:29:03;;;;;;;3.95;2.60;;;;;;;;;;4996877;28;20026;-78
2023/04/27 05:31:28;;;;;;;6.63;3.05;;;;;;;;;;4997963;28;20112;-78
2023/04/27 05:33:53;;;;;;;5.47;2.90;;;;;;;;;;4997381;28;20055;-78
2023/04/27 05:36:18;;;;;;;9.27;2.95;;;;;;;;;;4997863;28;20034;-77
2023/04/27 05:38:44;;;;;;;6.87;2.90;;;;;;;;;;4997034;28;20026;-77
2023/04/27 05:41:09;;;;;;;5.75;3.05;;;;;;;;;;4997305;28;20287;-77
2023/04/27 05:43:36;;;;;;;6.10;2.72;;;;;;;;;;5012839;28;20022;-76
2023/04/27 05:46:02;;;;;;;7.07;3.05;;;;;;;;;;4996798;28;20113;-76
2023/04/27 05:48:27;;;;;;;10.85;3.10;;;;;;;;;;4997555;28;20439;-76
2023/04/27 05:51:00;;;;;;;9.40;3.50;;;;;;;;;;4998094;28;20034;-77
2023/04/27 05:53:25;;;;;;;14.30;3.57;;;;;;;;;;4997814;28;20255;-77
2023/04/27 05:55:55;;;;;;;6.88;3.20;;;;;;;;;;4998965;28;20272;-78
2023/04/27 05:58:20;;;;;;;5.88;3.13;;;;;;;;;;5000576;28;20060;-78
2023/04/27 06:00:46;;;;;;;7.82;3.70;;;;;;;;;;4998774;28;20034;-78
2023/04/27 06:03:12;;;;;;;7.40;3.00;;;;;;;;;;4998549;28;20044;-77
2023/04/27 06:05:38;;;;;;;6.43;2.85;;;;;;;;;;4996882;28;20445;-77
2023/04/27 06:08:03;;;;;;;7.90;2.80;;;;;;;;;;4996668;28;20058;-76
2023/04/27 06:10:28;;;;;;;10.10;3.28;;;;;;;;;;4996467;28;20271;-77
2023/04/27 06:12:54;;;;;;;6.13;2.90;;;;;;;;;;4995241;28;20026;-77
2023/04/27 06:15:19;;;;;;;5.63;3.03;;;;;;;;;;4996908;28;20030;-77
2023/04/27 06:17:45;;;;;;;10.85;2.97;;;;;;;;;;4995965;28;20342;-77
2023/04/27 06:20:10;;;;;;;6.97;2.63;;;;;;;;;;4996334;28;20027;-76
2023/04/27 06:22:36;;;;;;;6.55;3.20;;;;;;;;;;4996908;28;20030;-78
2023/04/27 06:25:02;;;;;;;11.40;2.78;;;;;;;;;;4996918;28;20041;-77
2023/04/27 06:27:27;;;;;;;6.13;2.83;;;;;;;;;;4997215;28;20022;-78
2023/04/27 06:29:53;;;;;;;7.60;3.00;;;;;;;;;;4997238;28;20022;-78
2023/04/27 06:32:18;;;;;;;7.38;2.65;;;;;;;;;;5013100;28;20015;-78
2023/04/27 06:34:43;;;;;;;9.27;2.97;;;;;;;;;;5011478;28;20072;-78
2023/04/27 06:37:08;;;;;;;5.13;2.95;;;;;;;;;;4997366;28;20268;-78
2023/04/27 06:39:34;;;;;;;7.35;2.97;;;;;;;;;;4996971;28;20082;-79
2023/04/27 06:41:59;;;;;;;8.18;2.90;;;;;;;;;;4998294;28;20031;-78
2023/04/27 06:44:25;;;;;;;8.60;2.95;;;;;;;;;;4997105;28;20029;-78
2023/04/27 06:46:50;;;;;;;7.90;2.80;;;;;;;;;;4996011;28;20026;-78
2023/04/27 06:49:15;;;;;;;9.48;3.03;;;;;;;;;;4996633;28;20031;-78
2023/04/27 06:51:40;;;;;;;11.60;2.83;;;;;;;;;;4995946;28;20022;-77
2023/04/27 06:54:06;;;;;;;9.20;3.15;;;;;;;;;;4996846;28;20319;-78
2023/04/27 06:56:31;;;;;;;6.22;2.95;;;;;;;;;;4997933;28;20033;-78
2023/04/27 06:58:57;;;;;;;7.22;3.10;;;;;;;;;;5011623;28;20022;-78
2023/04/27 07:01:22;;;;;;;9.32;3.63;;;;;;;;;;4996378;28;20482;-78
2023/04/27 07:03:47;;;;;;;6.07;2.53;;;;;;;;;;4996067;28;20398;-79
2023/04/27 07:06:12;;;;;;;5.00;2.58;;;;;;;;;;4994487;28;20643;-78
2023/04/27 07:08:37;;;;;;;7.80;3.17;;;;;;;;;;4995933;28;20030;-78
2023/04/27 07:11:03;;;;;;;8.13;3.20;;;;;;;;;;4995961;28;20342;-78
2023/04/27 07:13:29;;;;;;;10.53;3.00;;;;;;;;;;4997190;28;20255;-78
2023/04/27 07:15:56;;;;;;;9.68;2.80;;;;;;;;;;4998029;28;20311;-79
2023/04/27 07:18:22;;;;;;;5.45;2.78;;;;;;;;;;4995244;28;20041;-78
2023/04/27 07:20:47;;;;;;;6.00;3.15;;;;;;;;;;4995473;28;20023;-77
2023/04/27 07:23:12;;;;;;;6.10;3.20;;;;;;;;;;4994727;28;20030;-78
2023/04/27 07:25:39;;;;;;;7.47;3.03;;;;;;;;;;4997026;28;20256;-78
2023/04/27 07:28:04;;;;;;;8.80;2.85;;;;;;;;;;4996210;28;20256;-79
2023/04/27 07:30:29;;;;;;;12.13;4.15;;;;;;;;;;4998665;28;20045;-79
2023/04/27 07:32:55;;;;;;;6.95;3.33;;;;;;;;;;4997665;28;20018;-78
2023/04/27 07:35:21;;;;;;;11.55;3.63;;;;;;;;;;4997214;28;20050;-79
2023/04/27 07:37:46;;;;;;;7.88;3.40;;;;;;;;;;4998018;28;20049;-78
2023/04/27 07:40:15;;;;;;;8.10;3.25;;;;;;;;;;5013042;28;20045;-78
2023/04/27 07:42:41;;;;;;;7.43;3.20;;;;;;;;;;4996269;28;20026;-78
2023/04/27 07:45:07;;;;;;;10.63;3.20;;;;;;;;;;4996997;28;20058;-78
2023/04/27 07:47:33;;;;;;;7.22;3.22;;;;;;;;;;4996415;28;20041;-79
2023/04/27 07:49:58;;;;;;;9.23;3.10;;;;;;;;;;4996345;28;20437;-79
2023/04/27 07:52:23;;;;;;;6.32;2.70;;;;;;;;;;4997657;28;20597;-79
2023/04/27 07:54:49;;;;;;;7.63;3.10;;;;;;;;;;4997118;28;20112;-78
2023/04/27 07:57:14;;;;;;;8.18;3.20;;;;;;;;;;4997135;28;20256;-79
2023/04/27 07:59:39;;;;;;;6.97;2.88;;;;;;;;;;5013872;28;20038;-79
2023/04/27 08:02:05;;;;;;;7.05;3.05;;;;;;;;;;4996331;28;20026;-78
2023/04/27 08:04:30;;;;;;;8.13;3.17;;;;;;;;;;4994077;28;20022;-77
2023/04/27 08:06:55;;;;;;;9.38;2.75;;;;;;;;;;4993542;28;20339;-77
2023/04/27 08:09:21;;;;;;;5.32;2.80;;;;;;;;;;4993037;28;20022;-78
2023/04/27 08:11:46;;;;;;;8.17;2.77;;;;;;;;;;4992723;28;20431;-78
2023/04/27 08:14:12;;;;;;;8.27;2.88;;;;;;;;;;4994520;28;20766;-78
2023/04/27 08:16:42;;;;;;;4.93;2.72;;;;;;;;;;4975811;28;997927;-78
2023/04/27 08:19:08;;;;;;;8.52;3.17;;;;;;;;;;4995635;28;20509;-78
2023/04/27 08:21:35;;;;;;;5.85;2.88;;;;;;;;;;4994844;28;20053;-78
2023/04/27 08:24:01;;;;;;;5.50;3.42;;;;;;;;;;4994650;28;20507;-78
2023/04/27 08:26:26;;;;;;;4.32;2.75;;;;;;;;;;4993682;28;20035;-78
2023/04/27 08:28:52;;;;;;;6.18;2.67;;;;;;;;;;4995374;28;20030;-78
2023/04/27 08:31:17;;;;;;;7.38;3.47;;;;;;;;;;4994959;28;20081;-78
2023/04/27 08:33:42;;;;;;;6.88;2.88;;;;;;;;;;5010110;28;20473;-78
2023/04/27 08:36:07;;;;;;;6.73;3.07;;;;;;;;;;4994815;28;20023;-79
2023/04/27 08:38:34;;;;;;;6.30;3.22;;;;;;;;;;4995010;28;20260;-78
2023/04/27 08:40:59;;;;;;;12.57;3.63;;;;;;;;;;4994910;28;20487;-78
2023/04/27 08:43:25;;;;;;;8.18;4.00;;;;;;;;;;4995536;28;20029;-78
2023/04/27 08:45:51;;;;;;;5.33;3.30;;;;;;;;;;4995205;28;20022;-78
2023/04/27 08:48:17;;;;;;;8.40;3.50;;;;;;;;;;4994790;28;20256;-78
2023/04/27 08:50:43;;;;;;;8.25;3.72;;;;;;;;;;4994429;28;20049;-78
2023/04/27 08:53:19;;;;;;;7.95;3.53;;;;;;;;;;4993128;28;20049;-78
2023/04/27 08:55:44;;;;;;;9.10;3.72;;;;;;;;;;4994702;28;20027;-77
2023/04/27 08:58:10;;;;;;;5.82;3.40;;;;;;;;;;4994936;28;20108;-78
2023/04/27 09:00:40;;;;;;;6.40;3.17;;;;;;;;;;4994916;28;20084;-78
2023/04/27 09:03:06;;;;;;;8.45;3.65;;;;;;;;;;4993562;28;20113;-78
2023/04/27 09:05:32;;;;;;;11.00;3.58;;;;;;;;;;5009838;28;20437;-77
2023/04/27 09:08:04;;;;;;;7.22;3.50;;;;;;;;;;4992385;28;20148;-78
2023/04/27 09:10:41;;;;;;;6.63;3.65;;;;;;;;;;4994159;28;20117;-78
2023/04/27 09:13:07;;;;;;;7.72;3.60;;;;;;;;;;4993753;28;20022;-78
2023/04/27 09:15:40;;;;;;;8.27;3.37;;;;;;;;;;4993912;28;20041;-78
2023/04/27 09:18:06;;;;;;;7.43;3.80;;;;;;;;;;4994667;28;20290;-78
2023/04/27 09:20:31;;;;;;;6.88;3.95;;;;;;;;;;4994935;28;20077;-78
2023/04/27 09:22:57;;;;;;;9.52;3.90;;;;;;;;;;4997502;28;20073;-78
2023/04/27 09:25:26;;;;;;;8.93;3.83;;;;;;;;;;4996862;28;20097;-78
2023/04/27 09:27:52;;;;;;;6.65;3.50;;;;;;;;;;4999247;28;20034;-78
2023/04/27 09:30:17;;;;;;;9.30;3.92;;;;;;;;;;5000606;28;20161;-78
2023/04/27 09:33:09;;;;;;;7.53;3.55;;;;;;;;;;4998851;28;20050;-78
2023/04/27 09:35:34;;;;;;;8.32;3.38;;;;;;;;;;4996644;28;20049;-78
2023/04/27 09:37:59;;;;;;;7.50;3.50;;;;;;;;;;5000477;28;20042;-78
2023/04/27 09:40:29;;;;;;;8.75;3.53;;;;;;;;;;4999877;28;20030;-79
2023/04/27 09:42:56;;;;;;;7.78;3.70;;;;;;;;;;4997734;28;20037;-79
2023/04/27 09:45:25;;;;;;;5.43;3.58;;;;;;;;;;4996933;28;20033;-79
2023/04/27 09:47:51;;;;;;;5.68;3.30;;;;;;;;;;5002619;28;20027;-79
2023/04/27 09:50:16;;;;;;;7.18;3.42;;;;;;;;;;4998846;28;20486;-79
2023/04/27 09:52:42;;;;;;;6.07;3.60;;;;;;;;;;4998692;28;20018;-79
2023/04/27 09:55:10;;;;;;;9.10;3.90;;;;;;;;;;4997373;28;20490;-78
2023/04/27 09:57:42;;;;;;;4.70;3.17;;;;;;;;;;4997892;28;20037;-79
2023/04/27 10:00:13;;;;;;;7.95;3.50;;;;;;;;;;4998051;28;20073;-78
2023/04/27 10:03:02;;;;;;;8.63;3.42;;;;;;;;;;4998275;28;20026;-78
2023/04/27 10:05:37;;;;;;;7.43;3.38;;;;;;;;;;4998383;28;20075;-78
2023/04/27 10:08:03;;;;;;;5.80;3.40;;;;;;;;;;4998081;28;20072;-78
2023/04/27 10:10:30;;;;;;;6.28;3.30;;;;;;;;;;4997780;28;20022;-78
2023/04/27 10:13:01;;;;;;;4.65;2.85;;;;;;;;;;4997692;28;20022;-78
2023/04/27 10:15:27;;;;;;;7.13;3.38;;;;;;;;;;4997402;28;20034;-78
2023/04/27 10:17:54;;;;;;;5.47;3.72;;;;;;;;;;4997599;28;20085;-79
2023/04/27 10:20:30;;;;;;;6.28;3.60;;;;;;;;;;4997398;28;20023;-78
2023/04/27 10:22:55;;;;;;;7.03;3.38;;;;;;;;;;4997779;28;20033;-78
2023/04/27 10:25:27;;;;;;;7.63;3.47;;;;;;;;;;5012329;28;20026;-78
2023/04/27 10:28:00;;;;;;;7.63;3.50;;;;;;;;;;4998327;28;20500;-78
2023/04/27 10:30:31;;;;;;;9.88;3.75;;;;;;;;;;4995688;28;20057;-77
2023/04/27 10:32:58;;;;;;;6.00;3.67;;;;;;;;;;4995837;28;20109;-78
2023/04/27 10:35:40;;;;;;;11.98;4.20;;;;;;;;;;4997685;28;20386;-78
2023/04/27 10:38:29;;;;;;;8.40;3.83;;;;;;;;;;4995995;28;20478;-79
2023/04/27 10:40:57;;;;;;;5.07;3.28;;;;;;;;;;4989594;28;20043;-78
2023/04/27 10:43:25;;;;;;;5.32;3.45;;;;;;;;;;4996903;28;20072;-78
2023/04/27 10:45:51;;;;;;;6.40;3.83;;;;;;;;;;4996984;28;20497;-78
2023/04/27 10:48:16;;;;;;;6.00;3.50;;;;;;;;;;4997110;28;20034;-77
2023/04/27 10:50:43;;;;;;;9.90;3.95;;;;;;;;;;4996891;28;20034;-78
2023/04/27 10:53:09;;;;;;;8.57;3.65;;;;;;;;;;4995501;28;20022;-78
2023/04/27 10:55:35;;;;;;;7.68;3.70;;;;;;;;;;4996683;28;20033;-78
2023/04/27 10:58:01;;;;;;;6.75;3.30;;;;;;;;;;4996491;28;20416;-78
2023/04/27 11:00:36;;;;;;;6.65;3.80;;;;;;;;;;4995670;28;20429;-78
2023/04/27 11:03:15;;;;;;;5.18;3.05;;;;;;;;;;4993751;28;20034;-78
2023/04/27 11:05:41;;;;;;;7.70;3.83;;;;;;;;;;4995220;28;20061;-78
2023/04/27 11:08:09;;;;;;;6.05;3.92;;;;;;;;;;4997116;28;20085;-78
2023/04/27 11:10:37;;;;;;;7.82;3.97;;;;;;;;;;4995700;28;20030;-77
2023/04/27 11:13:18;;;;;;;9.02;3.60;;;;;;;;;;4995109;28;20022;-78
2023/04/27 11:15:54;;;;;;;6.40;3.70;;;;;;;;;;4995189;28;20064;-79
2023/04/27 11:18:25;;;;;;;8.02;3.95;;;;;;;;;;4995547;28;20027;-77
2023/04/27 11:20:53;;;;;;;9.73;3.95;;;;;;;;;;4993883;28;20405;-77
2023/04/27 11:23:23;;;;;;;10.98;3.80;;;;;;;;;;4995285;28;20482;-77
2023/04/27 11:25:49;;;;;;;5.65;3.72;;;;;;;;;;4994889;28;20490;-77
2023/04/27 11:28:18;;;;;;;5.43;3.30;;;;;;;;;;4995766;28;20030;-79
2023/04/27 11:30:44;;;;;;;9.85;4.07;;;;;;;;;;4996916;28;20027;-78
2023/04/27 11:33:09;;;;;;;6.70;3.47;;;;;;;;;;4995226;28;20044;-78
2023/04/27 11:35:34;;;;;;;8.48;3.20;;;;;;;;;;4996907;28;20435;-78
2023/04/27 11:38:00;;;;;;;8.15;3.40;;;;;;;;;;4997084;28;20037;-79
2023/04/27 11:40:27;;;;;;;5.72;3.47;;;;;;;;;;4996825;28;20026;-78
2023/04/27 11:42:57;;;;;;;5.85;3.03;;;;;;;;;;4997087;28;20106;-78
2023/04/27 11:45:26;;;;;;;8.45;3.60;;;;;;;;;;4994476;28;20490;-76
2023/04/27 11:47:52;;;;;;;5.43;3.20;;;;;;;;;;4995063;28;20064;-77
2023/04/27 11:50:17;;;;;;;6.45;3.05;;;;;;;;;;4994025;28;20033;-78
2023/04/27 11:52:47;;;;;;;6.88;3.05;;;;;;;;;;4996449;28;20102;-78
2023/04/27 11:55:14;;;;;;;7.10;3.55;;;;;;;;;;4994197;28;20030;-78
2023/04/27 11:57:40;;;;;;;6.95;3.45;;;;;;;;;;4994161;28;20088;-78
2023/04/27 12:00:09;;;;;;;5.03;3.20;;;;;;;;;;4995291;28;20033;-78
2023/04/27 12:02:35;;;;;;;5.93;3.08;;;;;;;;;;4994890;28;20022;-77
2023/04/27 12:05:02;;;;;;;6.15;3.25;;;;;;;;;;4995770;28;20512;-77
2023/04/27 12:07:28;;;;;;;5.93;3.15;;;;;;;;;;5011102;28;20026;-77
2023/04/27 12:09:53;;;;;;;5.47;3.13;;;;;;;;;;4995381;28;20482;-78
2023/04/27 12:12:21;;;;;;;7.63;3.40;;;;;;;;;;4995582;28;20018;-78
2023/04/27 12:14:47;;;;;;;8.07;3.50;;;;;;;;;;4995354;28;20271;-77
2023/04/27 12:17:12;;;;;;;5.93;3.38;;;;;;;;;;4995189;28;20034;-78
2023/04/27 12:19:37;;;;;;;6.82;3.17;;;;;;;;;;4995209;28;20030;-78
2023/04/27 12:22:03;;;;;;;5.60;3.07;;;;;;;;;;4995261;28;20375;-78
2023/04/27 12:24:29;;;;;;;8.38;3.47;;;;;;;;;;4994000;28;20694;-78
2023/04/27 12:26:54;;;;;;;7.70;3.50;;;;;;;;;;4994889;28;20097;-78
2023/04/27 12:29:20;;;;;;;7.30;3.45;;;;;;;;;;4995403;28;20556;-78
2023/04/27 12:31:45;;;;;;;5.30;3.65;;;;;;;;;;4995472;28;20024;-78
2023/04/27 12:34:11;;;;;;;4.60;3.17;;;;;;;;;;4995663;28;20404;-78
2023/04/27 12:36:36;;;;;;;5.72;3.45;;;;;;;;;;4993696;28;20022;-78
2023/04/27 12:39:16;;;;;;;7.90;3.45;;;;;;;;;;4995404;28;20520;-78
2023/04/27 12:41:43;;;;;;;10.77;3.78;;;;;;;;;;5009461;28;20397;-78
2023/04/27 12:44:08;;;;;;;4.55;2.50;;;;;;;;;;5010073;28;20057;-78
2023/04/27 12:46:33;;;;;;;5.65;3.70;;;;;;;;;;4995237;28;20029;-78
2023/04/27 12:49:00;;;;;;;7.57;3.67;;;;;;;;;;4994858;28;20034;-78
2023/04/27 12:51:27;;;;;;;5.05;3.35;;;;;;;;;;4995092;28;20263;-79
2023/04/27 12:53:52;;;;;;;6.18;2.95;;;;;;;;;;4995235;28;20022;-78
2023/04/27 12:56:18;;;;;;;6.70;3.80;;;;;;;;;;4993336;28;20417;-79
2023/04/27 12:58:43;;;;;;;7.97;3.83;;;;;;;;;;4995107;28;20044;-78
2023/04/27 13:01:13;;;;;;;7.20;3.75;;;;;;;;;;4995244;28;20073;-78
2023/04/27 13:03:42;;;;;;;8.45;3.60;;;;;;;;;;4995409;28;20048;-78
2023/04/27 13:06:07;;;;;;;6.05;3.40;;;;;;;;;;4994182;28;20039;-77
2023/04/27 13:08:36;;;;;;;8.10;3.90;;;;;;;;;;4995135;28;20030;-78
2023/04/27 13:11:01;;;;;;;8.68;3.83;;;;;;;;;;4995548;28;20256;-78
2023/04/27 13:13:27;;;;;;;4.60;3.13;;;;;;;;;;4995312;28;20030;-78
2023/04/27 13:15:52;;;;;;;6.97;3.67;;;;;;;;;;4994667;28;20019;-77
2023/04/27 13:18:17;;;;;;;8.10;4.05;;;;;;;;;;5009393;28;20037;-77
2023/04/27 13:20:43;;;;;;;7.60;4.18;;;;;;;;;;5009653;28;20477;-76
2023/04/27 13:23:08;;;;;;;11.43;4.10;;;;;;;;;;4994681;28;20030;-77
2023/04/27 13:25:34;;;;;;;8.13;3.92;;;;;;;;;;4994359;28;20030;-76
2023/04/27 13:27:59;;;;;;;7.60;4.32;;;;;;;;;;4996372;28;20038;-77
2023/04/27 13:30:24;;;;;;;7.22;3.33;;;;;;;;;;5013843;28;20026;-78
2023/04/27 13:32:51;;;;;;;7.13;3.95;;;;;;;;;;4999504;28;20018;-76
2023/04/27 13:35:16;;;;;;;9.35;4.05;;;;;;;;;;4996026;28;20022;-77
2023/04/27 13:37:41;;;;;;;7.10;3.78;;;;;;;;;;4996327;28;20069;-77
2023/04/27 13:40:11;;;;;;;9.83;3.87;;;;;;;;;;4996338;28;20026;-78
2023/04/27 13:42:37;;;;;;;6.45;3.45;;;;;;;;;;4999642;28;20280;-78
2023/04/27 13:45:03;;;;;;;8.07;3.55;;;;;;;;;;4997520;28;20501;-78
2023/04/27 13:47:35;;;;;;;6.57;4.18;;;;;;;;;;4998880;28;20030;-78
2023/04/27 13:50:05;;;;;;;6.30;3.78;;;;;;;;;;4998944;28;20117;-78
2023/04/27 13:52:30;;;;;;;8.63;3.70;;;;;;;;;;4998644;28;20379;-77
2023/04/27 13:54:55;;;;;;;8.15;4.55;;;;;;;;;;4996723;28;20042;-77
2023/04/27 13:57:20;;;;;;;6.53;4.13;;;;;;;;;;4998402;28;20027;-77
2023/04/27 13:59:46;;;;;;;5.38;3.42;;;;;;;;;;4998288;28;20263;-78
2023/04/27 14:02:11;;;;;;;7.40;3.50;;;;;;;;;;4998560;28;20035;-78
2023/04/27 14:04:36;;;;;;;7.78;3.47;;;;;;;;;;4998039;28;20350;-78
2023/04/27 14:07:01;;;;;;;8.93;4.40;;;;;;;;;;4998125;28;20371;-78
2023/04/27 14:09:27;;;;;;;7.97;4.17;;;;;;;;;;4999074;28;20018;-78
2023/04/27 14:11:52;;;;;;;8.27;4.40;;;;;;;;;;4998794;28;20294;-78
2023/04/27 14:14:17;;;;;;;8.20;4.57;;;;;;;;;;4997071;28;20275;-78
2023/04/27 14:16:42;;;;;;;8.00;4.40;;;;;;;;;;4997574;28;20084;-78
2023/04/27 14:19:09;;;;;;;7.30;4.23;;;;;;;;;;5012689;28;20257;-78
2023/04/27 14:21:34;;;;;;;7.95;4.63;;;;;;;;;;4998041;28;20651;-78
2023/04/27 14:23:59;;;;;;;4.40;3.47;;;;;;;;;;4998569;28;20022;-78
2023/04/27 14:26:25;;;;;;;5.93;3.87;;;;;;;;;;4998730;28;20034;-78
2023/04/27 14:28:50;;;;;;;6.68;4.28;;;;;;;;;;4997997;28;20255;-78
2023/04/27 14:31:16;;;;;;;8.57;4.18;;;;;;;;;;4998894;28;20451;-77
2023/04/27 14:33:42;;;;;;;8.35;4.45;;;;;;;;;;4998335;28;20117;-74
2023/04/27 14:36:07;;;;;;;10.32;4.50;;;;;;;;;;5000498;28;20049;-77